Time;durP1;ratioP1;P1;durP2;ratioP2;P2;SDS_P1;SDS_P2;PMS_P1;PMS_P2;Temp;Humidity;BMP_temperature;BMP_pressure;BME280_temperature;BME280_humidity;BME280_pressure;Samples;Min_cycle;Max_cycle;Signal;HPM_P1;HPM_P2
2023/10/16 00:01:11;;;;;;;4.30;2.60;;;;;;;23.37;60.22;100472.59;107162;1266;22757;-71
2023/10/16 00:03:43;;;;;;;5.80;3.10;;;;;;;23.29;60.28;100469.70;107172;1253;25416;-72
2023/10/16 00:06:11;;;;;;;5.50;3.50;;;;;;;23.22;60.09;100475.05;107144;1255;25372;-71
2023/10/16 00:08:47;;;;;;;5.10;3.00;;;;;;;23.15;60.08;100482.30;106968;1258;22523;-71
2023/10/16 00:11:24;;;;;;;6.90;3.30;;;;;;;23.07;60.04;100488.40;107207;1254;25347;-71
2023/10/16 00:13:52;;;;;;;10.40;3.10;;;;;;;22.94;60.40;100491.05;107246;1266;24313;-72
2023/10/16 00:16:21;;;;;;;6.50;3.60;;;;;;;22.83;60.58;100495.94;107231;1250;25257;-73
2023/10/16 00:18:50;;;;;;;7.10;3.40;;;;;;;22.76;60.84;100501.77;107306;1250;22570;-72
2023/10/16 00:21:18;;;;;;;7.30;3.80;;;;;;;22.72;60.95;100498.23;107222;1260;23928;-72
2023/10/16 00:23:45;;;;;;;7.30;3.60;;;;;;;22.73;60.93;100499.05;106969;1258;23088;-73
2023/10/16 00:26:19;;;;;;;5.10;3.30;;;;;;;22.76;60.80;100501.63;107212;1253;24400;-73
2023/10/16 00:29:01;;;;;;;4.00;3.00;;;;;;;22.64;60.95;100504.65;106973;1257;323601;-73
2023/10/16 00:31:32;;;;;;;8.30;5.90;;;;;;;22.52;60.35;100501.45;106967;1259;25347;-71
2023/10/16 00:33:59;;;;;;;8.60;6.30;;;;;;;22.24;56.88;100499.66;107296;1262;25347;-72
2023/10/16 00:36:26;;;;;;;10.70;7.20;;;;;;;21.94;55.25;100503.82;107152;1256;22765;-72
2023/10/16 00:38:53;;;;;;;8.20;6.40;;;;;;;21.66;54.59;100511.52;107301;1260;24195;-71
2023/10/16 00:41:24;;;;;;;9.70;6.50;;;;;;;21.41;54.01;100512.63;107209;1254;25506;-72
2023/10/16 00:43:51;;;;;;;9.00;6.30;;;;;;;21.20;53.97;100515.00;106818;1272;25375;-73
2023/10/16 00:46:36;;;;;;;8.40;6.30;;;;;;;21.01;53.86;100522.81;107292;1253;25523;-72
2023/10/16 00:49:07;;;;;;;8.60;6.30;;;;;;;20.85;53.68;100534.11;107230;1254;22639;-74
2023/10/16 00:51:40;;;;;;;10.00;5.90;;;;;;;20.71;53.60;100533.63;107208;1254;23890;-71
2023/10/16 00:54:16;;;;;;;11.80;6.10;;;;;;;20.62;53.56;100536.05;106986;1259;23349;-73
2023/10/16 00:56:44;;;;;;;8.10;5.00;;;;;;;20.51;53.40;100539.77;107047;1257;22504;-71
2023/10/16 00:59:18;;;;;;;8.10;5.30;;;;;;;20.41;53.18;100530.59;107110;1266;24378;-72
2023/10/16 01:01:45;;;;;;;13.10;6.40;;;;;;;20.28;53.36;100531.23;106940;1251;22620;-72
2023/10/16 01:04:13;;;;;;;7.20;4.90;;;;;;;20.19;53.51;100519.35;106966;1253;25369;-72
2023/10/16 01:06:41;;;;;;;8.20;5.30;;;;;;;20.08;53.23;100522.47;106992;1253;24476;-72
2023/10/16 01:09:08;;;;;;;9.50;4.70;;;;;;;19.97;53.10;100523.76;107064;1255;25520;-72
2023/10/16 01:11:39;;;;;;;6.90;4.80;;;;;;;19.87;52.97;100523.66;107174;1257;24211;-73
2023/10/16 01:14:07;;;;;;;7.20;4.70;;;;;;;19.79;52.88;100528.94;106568;1255;1003729;-72
2023/10/16 01:16:34;;;;;;;7.40;3.60;;;;;;;19.74;52.56;100546.33;107124;1253;25372;-71
2023/10/16 01:19:06;;;;;;;5.60;3.20;;;;;;;19.73;52.40;100560.34;106877;1259;25346;-72
2023/10/16 01:21:33;;;;;;;4.60;2.70;;;;;;;19.73;51.91;100540.59;107241;1253;25392;-72
2023/10/16 01:24:21;;;;;;;4.00;2.60;;;;;;;19.63;51.64;100540.74;107201;1253;23899;-72
2023/10/16 01:26:48;;;;;;;8.00;3.10;;;;;;;19.49;51.68;100540.38;107206;1254;25372;-73
2023/10/16 01:29:15;;;;;;;6.80;2.40;;;;;;;19.34;51.86;100547.05;107230;1257;25410;-73
2023/10/16 01:31:51;;;;;;;9.00;2.10;;;;;;;19.20;52.40;100539.11;107195;1263;25372;-71
2023/10/16 01:34:22;;;;;;;10.10;2.30;;;;;;;19.04;53.23;100548.16;106912;1272;25347;-70
2023/10/16 01:36:51;;;;;;;9.80;2.30;;;;;;;18.91;54.18;100564.77;107272;1251;24220;-72
2023/10/16 01:42:21;;;;;;;4.40;1.90;;;;;;;18.65;54.42;100583.17;106517;1265;22549;-71
2023/10/16 01:44:51;;;;;;;2.50;1.40;;;;;;;18.47;54.78;100596.03;107021;1264;25385;-73
2023/10/16 01:47:19;;;;;;;5.40;1.40;;;;;;;18.28;55.24;100598.98;107235;1256;25427;-74
2023/10/16 01:49:49;;;;;;;2.80;1.00;;;;;;;18.07;55.93;100602.85;107230;1253;22531;-70
2023/10/16 01:52:16;;;;;;;3.50;0.70;;;;;;;17.82;56.88;100602.98;107189;1253;22644;-72
2023/10/16 01:54:47;;;;;;;7.90;1.50;;;;;;;17.56;57.53;100604.51;107252;1253;25418;-72
2023/10/16 01:57:15;;;;;;;;;;;;;;;17.32;58.05;100602.98;104312;1253;1003601;-71
2023/10/16 01:59:43;;;;;;;3.70;0.80;;;;;;;17.08;58.23;100608.95;106913;1269;25424;-70
2023/10/16 02:02:12;;;;;;;3.90;0.70;;;;;;;16.83;58.41;100617.38;107082;1257;24203;-71
2023/10/16 02:04:40;;;;;;;2.90;0.40;;;;;;;16.65;58.82;100623.22;107223;1263;25362;-72
2023/10/16 02:07:06;;;;;;;2.20;0.60;;;;;;;16.50;59.05;100612.35;107197;1253;25635;-72
2023/10/16 02:09:36;;;;;;;1.40;0.50;;;;;;;16.39;59.33;100616.58;107197;1251;22528;-70
2023/10/16 02:12:10;;;;;;;1.90;0.50;;;;;;;16.27;59.32;100636.39;107168;1263;25379;-71
2023/10/16 02:14:40;;;;;;;5.50;0.70;;;;;;;16.17;59.76;100617.77;107239;1263;25287;-71
2023/10/16 02:17:21;;;;;;;3.10;0.50;;;;;;;16.10;59.73;100618.98;106917;1259;25347;-72
2023/10/16 02:19:48;;;;;;;2.30;0.70;;;;;;;16.05;59.51;100614.48;106744;1262;25610;-71
2023/10/16 02:22:16;;;;;;;2.60;0.50;;;;;;;15.94;59.59;100626.73;106850;1266;25601;-69
2023/10/16 02:24:48;;;;;;;0.60;0.30;;;;;;;15.86;59.86;100630.45;106870;1256;22574;-71
2023/10/16 02:27:18;;;;;;;3.50;0.50;;;;;;;15.81;60.06;100640.60;106870;1256;22675;-71
2023/10/16 02:29:51;;;;;;;1.30;0.50;;;;;;;15.80;60.55;100648.53;106923;1270;25494;-73
2023/10/16 02:32:20;;;;;;;2.10;0.50;;;;;;;15.79;60.64;100646.85;106922;1270;25359;-73
2023/10/16 02:34:50;;;;;;;3.20;0.90;;;;;;;15.77;60.79;100650.25;106906;1259;25256;-73
2023/10/16 02:37:20;;;;;;;1.20;0.60;;;;;;;15.73;60.29;100656.03;106859;1262;25267;-71
2023/10/16 02:39:50;;;;;;;2.30;0.50;;;;;;;15.68;59.77;100670.41;106844;1259;22530;-73
2023/10/16 02:42:19;;;;;;;1.30;0.40;;;;;;;15.62;59.16;100673.80;106654;1264;25335;-71
2023/10/16 02:44:47;;;;;;;1.60;0.50;;;;;;;15.57;59.08;100686.27;106670;1275;22516;-71
2023/10/16 02:47:26;;;;;;;1.30;0.40;;;;;;;15.56;59.11;100675.67;106802;1269;23250;-70
2023/10/16 02:49:56;;;;;;;1.90;0.50;;;;;;;15.54;58.48;100686.59;107031;1264;23488;-71
2023/10/16 02:52:24;;;;;;;2.10;0.40;;;;;;;15.50;58.17;100685.05;106905;1251;25433;-74
2023/10/16 02:54:51;;;;;;;0.70;0.30;;;;;;;15.43;58.36;100691.94;107014;1256;22635;-71
2023/10/16 02:57:19;;;;;;;1.20;0.40;;;;;;;15.37;57.95;100698.47;106770;1267;24377;-71
2023/10/16 02:59:46;;;;;;;1.30;0.60;;;;;;;15.34;58.18;100713.48;106992;1263;24203;-72
2023/10/16 03:02:35;;;;;;;3.10;0.40;;;;;;;15.35;58.49;100716.58;107005;1264;25265;-72
2023/10/16 03:05:11;;;;;;;4.00;0.80;;;;;;;15.36;58.76;100711.80;107175;1254;24203;-71
2023/10/16 03:07:44;;;;;;;3.30;0.90;;;;;;;15.38;58.65;100701.60;107208;1254;22521;-71
2023/10/16 03:10:11;;;;;;;3.10;0.40;;;;;;;15.31;59.24;100687.54;107198;1253;25414;-72
2023/10/16 03:12:38;;;;;;;8.10;1.70;;;;;;;15.27;59.34;100685.48;107243;1256;25344;-70
2023/10/16 03:15:16;;;;;;;2.30;0.60;;;;;;;15.21;59.72;100689.02;107218;1257;25819;-72
2023/10/16 03:17:43;;;;;;;1.80;0.40;;;;;;;15.10;59.78;100693.36;107136;1250;24396;-71
2023/10/16 03:20:20;;;;;;;0.40;0.30;;;;;;;15.00;60.01;100695.33;107152;1253;25369;-70
2023/10/16 03:22:50;;;;;;;1.70;0.40;;;;;;;14.93;60.20;100706.29;107268;1253;25496;-71
2023/10/16 03:25:28;;;;;;;3.00;0.70;;;;;;;14.86;60.51;100723.33;107150;1263;25324;-70
2023/10/16 03:27:57;;;;;;;3.80;0.80;;;;;;;14.81;60.98;100725.11;107142;1263;25388;-72
2023/10/16 03:30:28;;;;;;;4.80;0.50;;;;;;;14.78;61.47;100730.79;107107;1256;25424;-70
2023/10/16 03:33:03;;;;;;;3.90;0.70;;;;;;;14.78;61.31;100730.13;107227;1262;22523;-72
2023/10/16 03:35:31;;;;;;;2.90;0.50;;;;;;;14.73;61.52;100724.54;107382;1251;25372;-69
2023/10/16 03:37:59;;;;;;;4.00;0.70;;;;;;;14.69;61.35;100723.45;107152;1262;25494;-69
2023/10/16 03:40:27;;;;;;;2.90;0.60;;;;;;;14.62;61.16;100707.66;107161;1254;22648;-70
2023/10/16 03:42:54;;;;;;;2.00;0.50;;;;;;;14.57;61.36;100706.47;107011;1257;25411;-71
2023/10/16 03:45:21;;;;;;;0.90;0.40;;;;;;;14.54;61.39;100710.27;107096;1256;25464;-71
2023/10/16 03:47:52;;;;;;;1.10;0.30;;;;;;;14.52;61.19;100704.59;106819;1259;25497;-73
2023/10/16 03:50:34;;;;;;;1.00;0.30;;;;;;;14.48;61.17;100715.91;107107;1253;25343;-72
2023/10/16 03:53:01;;;;;;;1.30;0.40;;;;;;;14.47;61.31;100718.21;106730;1266;25375;-72
2023/10/16 03:55:31;;;;;;;2.40;0.80;;;;;;;14.49;61.39;100727.56;106971;1263;22527;-72
2023/10/16 03:57:58;;;;;;;2.60;0.40;;;;;;;14.49;60.99;100734.01;107076;1254;25424;-73
2023/10/16 04:01:11;;;;;;;0.80;0.30;;;;;;;14.51;60.64;100738.81;107091;1254;25365;-71
2023/10/16 04:03:15;;;;;;;0.80;0.40;;;;;;;14.51;60.23;100732.20;107020;1261;24253;-73
2023/10/16 04:05:45;;;;;;;1.70;0.50;;;;;;;14.52;60.68;100746.12;107090;1256;22518;-71
2023/10/16 04:08:23;;;;;;;1.50;0.60;;;;;;;14.55;60.94;100750.39;107253;1254;25391;-73
2023/10/16 04:10:53;;;;;;;1.10;1.00;;;;;;;14.56;61.27;100748.94;107143;1254;22530;-71
2023/10/16 04:13:25;;;;;;;2.80;0.90;;;;;;;14.58;61.57;100768.05;107240;1253;25334;-71
2023/10/16 04:18:33;;;;;;;1.30;0.50;;;;;;;14.59;61.03;100775.36;107235;1266;25495;-74
2023/10/16 04:29:45;;;;;;;3.30;0.60;;;;;;;14.52;59.12;100819.27;107251;1254;23272;-72
2023/10/16 04:31:56;;;;;;;1.90;0.60;;;;;;;14.43;59.03;100840.04;106977;1256;22644;-72
2023/10/16 04:36:52;;;;;;;0.70;0.50;;;;;;;14.43;60.67;100859.21;107284;1254;24352;-72
2023/10/16 04:47:42;;;;;;;2.20;0.30;;;;;;;14.30;57.47;100908.87;106948;1257;24217;-73
2023/10/16 04:50:09;;;;;;;1.00;0.30;;;;;;;14.26;57.35;100915.63;106831;1263;23886;-73
2023/10/16 04:53:06;;;;;;;0.90;0.30;;;;;;;14.27;57.90;100931.13;106977;1256;24071;-73
2023/10/16 05:00:56;;;;;;;3.50;0.90;;;;;;;14.28;59.12;100967.92;107071;1253;23909;-73
2023/10/16 05:03:25;;;;;;;1.10;0.40;;;;;;;14.22;59.30;100978.41;107165;1253;25411;-71
2023/10/16 05:06:05;;;;;;;2.50;0.50;;;;;;;14.16;58.94;100984.02;107161;1261;25380;-75
2023/10/16 05:13:55;;;;;;;3.40;0.70;;;;;;;13.95;58.81;101028.48;107121;1273;25493;-73
2023/10/16 05:16:36;;;;;;;1.60;0.60;;;;;;;13.96;58.90;101042.06;107220;1253;23464;-74
2023/10/16 05:19:03;;;;;;;2.90;0.90;;;;;;;13.92;58.75;101058.58;107044;1259;25347;-72
2023/10/16 06:14:12;;;;;;;0.70;0.30;;;;;;;13.22;58.16;101111.71;106873;1260;25487;-76
2023/10/16 06:16:43;;;;;;;1.60;0.50;;;;;;;13.21;57.94;101119.20;106838;1259;22559;-73
2023/10/16 06:19:19;;;;;;;2.30;0.40;;;;;;;13.19;57.93;101112.66;107084;1256;25328;-72
2023/10/16 06:21:50;;;;;;;0.50;0.30;;;;;;;13.19;58.28;101117.55;107068;1272;24126;-71
2023/10/16 06:24:35;;;;;;;1.00;0.40;;;;;;;13.19;57.88;101135.64;106802;1270;24269;-72
2023/10/16 06:27:10;;;;;;;0.50;0.30;;;;;;;13.17;57.58;101136.41;106888;1262;25356;-72
2023/10/16 06:29:49;;;;;;;1.20;0.40;;;;;;;13.17;57.81;101156.25;106903;1259;25409;-74
2023/10/16 06:32:19;;;;;;;0.80;0.40;;;;;;;13.17;57.21;101147.36;106907;1259;25488;-75
2023/10/16 06:35:16;;;;;;;1.30;0.30;;;;;;;13.18;57.65;101155.35;106635;1259;26731;-73
2023/10/16 06:37:41;;;;;;;;;;;;;;;13.22;57.95;101157.15;106503;1269;25404;-74
2023/10/16 06:40:16;;;;;;;0.90;0.40;;;;;;;13.26;57.54;101154.11;106393;1262;22645;-75
2023/10/16 06:42:46;;;;;;;1.10;0.40;;;;;;;13.26;57.32;101157.40;106818;1258;24342;-75
2023/10/16 06:45:19;;;;;;;0.50;0.40;;;;;;;13.29;57.46;101173.88;106839;1266;25844;-74
2023/10/16 06:47:50;;;;;;;0.40;0.40;;;;;;;13.31;57.56;101193.70;106963;1263;25350;-75
2023/10/16 06:52:54;;;;;;;1.60;0.50;;;;;;;13.32;56.96;101222.59;106966;1259;25372;-74
2023/10/16 06:55:21;;;;;;;2.50;0.70;;;;;;;13.32;56.56;101216.33;106800;1262;22536;-74
2023/10/16 06:57:49;;;;;;;0.40;0.40;;;;;;;13.33;56.36;101219.10;106129;1259;1003358;-72
2023/10/16 07:00:22;;;;;;;0.60;0.50;;;;;;;13.32;56.14;101228.67;106966;1260;22579;-73
2023/10/16 07:02:55;;;;;;;1.30;0.70;;;;;;;13.33;56.20;101234.08;107009;1258;25439;-75
2023/10/16 07:05:23;;;;;;;0.80;0.40;;;;;;;13.35;56.63;101238.02;106922;1276;22990;-71
2023/10/16 07:07:59;;;;;;;1.10;0.50;;;;;;;13.29;56.89;101237.66;107046;1260;24205;-73
2023/10/16 07:10:26;;;;;;;1.30;0.90;;;;;;;13.29;56.97;101247.75;107236;1254;24266;-71
2023/10/16 07:12:58;;;;;;;0.70;0.60;;;;;;;13.26;56.49;101244.85;107178;1263;22509;-72
2023/10/16 07:15:31;;;;;;;0.70;0.40;;;;;;;13.24;56.22;101243.52;107262;1266;24183;-70
2023/10/16 07:18:04;;;;;;;1.50;0.60;;;;;;;13.25;56.24;101247.51;107261;1254;24250;-74
2023/10/16 07:20:34;;;;;;;0.90;0.70;;;;;;;13.46;55.96;101246.78;107184;1253;25356;-74
2023/10/16 07:23:01;;;;;;;2.10;0.70;;;;;;;13.56;55.19;101257.68;107258;1253;22639;-73
2023/10/16 07:25:47;;;;;;;1.50;0.70;;;;;;;13.64;54.58;101274.05;107055;1270;25394;-71
2023/10/16 07:28:16;;;;;;;1.20;0.70;;;;;;;13.68;55.00;101269.20;107257;1256;25494;-72
2023/10/16 07:30:43;;;;;;;0.80;0.60;;;;;;;13.71;55.23;101277.16;107239;1263;25497;-73
2023/10/16 07:33:14;;;;;;;1.60;1.10;;;;;;;13.73;55.13;101277.09;107163;1256;25394;-73
2023/10/16 07:35:45;;;;;;;1.10;0.70;;;;;;;13.77;55.14;101281.87;107198;1257;24336;-71
2023/10/16 07:38:13;;;;;;;0.50;0.50;;;;;;;13.77;55.26;101298.11;107223;1254;25420;-74
2023/10/16 07:40:40;;;;;;;4.60;1.00;;;;;;;13.81;54.61;101300.06;107252;1263;22547;-73
2023/10/16 07:43:07;;;;;;;1.20;0.70;;;;;;;13.83;54.90;101303.69;107240;1254;25522;-71
2023/10/16 07:45:34;;;;;;;1.30;0.70;;;;;;;13.87;55.25;101317.37;107110;1260;25411;-75
2023/10/16 07:48:17;;;;;;;1.00;0.60;;;;;;;13.89;54.72;101323.73;107183;1263;25372;-73
2023/10/16 07:50:44;;;;;;;1.70;0.80;;;;;;;13.91;54.75;101331.72;107251;1256;22534;-73
2023/10/16 07:53:17;;;;;;;2.20;1.40;;;;;;;13.94;54.68;101335.66;107074;1260;22531;-73
2023/10/16 07:55:50;;;;;;;3.00;1.10;;;;;;;13.95;54.77;101335.80;107007;1273;25411;-73
2023/10/16 07:58:23;;;;;;;3.70;1.10;;;;;;;13.95;54.68;101330.92;107252;1254;25496;-73
2023/10/16 08:03:41;;;;;;;2.80;1.60;;;;;;;13.98;54.79;101335.39;107286;1254;23411;-73
2023/10/16 08:06:26;;;;;;;2.70;1.40;;;;;;;13.97;54.60;101323.36;107193;1264;25362;-72
2023/10/16 08:11:44;;;;;;;2.20;1.40;;;;;;;13.83;54.79;101330.03;106656;1267;25497;-70
2023/10/16 08:14:10;;;;;;;2.50;1.40;;;;;;;13.83;54.47;101334.38;106957;1257;22546;-72
2023/10/16 08:16:40;;;;;;;2.90;1.80;;;;;;;13.88;54.19;101338.25;107029;1254;25436;-74
2023/10/16 08:19:24;;;;;;;1.20;1.10;;;;;;;13.89;54.11;101342.77;107103;1260;25334;-73
2023/10/16 08:21:56;;;;;;;3.20;1.40;;;;;;;13.91;54.00;101351.96;107209;1254;24234;-72
2023/10/16 08:24:24;;;;;;;;;;;;;;;13.95;54.29;101354.48;106946;1260;25349;-73
2023/10/16 08:26:52;;;;;;;4.70;1.80;;;;;;;13.98;53.96;101341.33;106882;1273;25421;-71
2023/10/16 08:29:20;;;;;;;4.00;1.90;;;;;;;13.99;53.81;101348.62;106788;1259;24203;-71
2023/10/16 08:32:05;;;;;;;4.80;2.00;;;;;;;14.01;54.02;101359.91;106799;1263;22602;-73
2023/10/16 08:34:35;;;;;;;2.90;1.90;;;;;;;14.06;54.76;101354.70;107070;1254;25532;-72
2023/10/16 08:37:07;;;;;;;2.50;1.60;;;;;;;14.10;54.00;101355.81;106883;1266;25527;-72
2023/10/16 08:39:44;;;;;;;1.70;1.60;;;;;;;14.13;53.79;101344.91;106991;1267;22633;-71
2023/10/16 08:42:18;;;;;;;1.80;1.40;;;;;;;14.16;53.75;101360.54;106916;1273;24314;-70
2023/10/16 08:44:51;;;;;;;2.50;1.20;;;;;;;14.19;53.55;101366.04;106917;1261;25363;-71
2023/10/16 08:47:29;;;;;;;2.60;1.10;;;;;;;14.24;53.67;101362.59;107137;1256;22149;-74
2023/10/16 08:49:57;;;;;;;4.30;1.60;;;;;;;14.30;53.54;101361.41;107162;1267;24471;-72
2023/10/16 08:52:34;;;;;;;1.60;1.10;;;;;;;14.33;53.58;101368.81;106939;1258;25424;-72
2023/10/16 08:55:14;;;;;;;2.20;1.20;;;;;;;14.39;53.55;101374.61;107088;1267;25296;-74
2023/10/16 08:57:42;;;;;;;1.80;1.10;;;;;;;14.44;53.63;101388.42;107301;1258;23273;-70
2023/10/16 09:00:14;;;;;;;2.00;1.60;;;;;;;14.52;53.23;101382.09;107121;1267;22568;-72
2023/10/16 09:02:41;;;;;;;2.90;1.20;;;;;;;14.60;53.14;101391.27;107211;1267;24355;-72
2023/10/16 09:05:11;;;;;;;2.20;1.20;;;;;;;14.71;52.87;101398.48;107201;1254;25399;-73
2023/10/16 09:07:39;;;;;;;2.40;1.40;;;;;;;14.83;52.56;101395.89;107232;1267;25359;-72
2023/10/16 09:10:10;;;;;;;2.90;1.40;;;;;;;14.99;52.23;101399.59;107234;1262;22530;-71
2023/10/16 09:12:52;;;;;;;5.60;1.70;;;;;;;14.97;52.06;101404.55;106968;1270;25328;-71
2023/10/16 09:15:24;;;;;;;1.60;1.10;;;;;;;15.04;51.62;101411.16;106974;1274;22559;-70
2023/10/16 09:17:52;;;;;;;2.20;1.70;;;;;;;15.07;51.13;101403.54;106855;1270;25497;-71
2023/10/16 09:20:19;;;;;;;2.30;1.70;;;;;;;15.11;51.41;101396.77;107149;1273;22517;-71
2023/10/16 09:22:47;;;;;;;4.40;1.90;;;;;;;15.17;51.55;101396.77;107570;1272;24200;-74
2023/10/16 09:25:15;;;;;;;5.20;2.10;;;;;;;15.24;51.77;101399.17;107337;1267;22524;-74
2023/10/16 09:28:00;;;;;;;3.50;1.90;;;;;;;15.32;50.79;101406.42;107470;1262;23232;-70
2023/10/16 09:30:32;;;;;;;2.60;1.70;;;;;;;15.36;50.36;101423.81;107310;1253;24383;-72
2023/10/16 09:32:59;;;;;;;3.90;2.30;;;;;;;15.38;50.46;101420.95;106346;1267;1003603;-70
2023/10/16 09:35:32;;;;;;;3.10;2.10;;;;;;;15.42;49.88;101419.25;107248;1263;22762;-70
2023/10/16 09:38:18;;;;;;;3.60;1.80;;;;;;;15.48;49.86;101425.05;107080;1260;25369;-70
2023/10/16 09:44:22;;;;;;;2.70;2.00;;;;;;;15.56;49.25;101426.17;107141;1267;24215;-69
2023/10/16 09:46:53;;;;;;;5.30;2.20;;;;;;;15.61;48.71;101429.83;106956;1266;25424;-71
2023/10/16 09:49:21;;;;;;;2.50;1.80;;;;;;;15.57;48.86;101429.47;106895;1270;25449;-70
2023/10/16 09:51:57;;;;;;;4.50;1.90;;;;;;;15.64;48.54;101422.23;107348;1267;22979;-69
2023/10/16 09:54:35;;;;;;;4.50;1.80;;;;;;;15.86;47.68;101422.02;106881;1261;25620;-70
2023/10/16 09:57:03;;;;;;;5.90;2.10;;;;;;;15.87;47.67;101424.27;107209;1263;25338;-70
2023/10/16 09:59:34;;;;;;;4.60;2.00;;;;;;;15.84;47.59;101424.74;107187;1267;22533;-73
2023/10/16 10:02:16;;;;;;;4.20;2.00;;;;;;;15.83;47.58;101430.00;107209;1267;22528;-70
2023/10/16 10:04:59;;;;;;;9.40;2.10;;;;;;;15.66;48.09;101430.73;107171;1269;22602;-70
2023/10/16 10:07:38;;;;;;;2.70;1.70;;;;;;;15.64;48.15;101433.97;107156;1267;25377;-70
2023/10/16 10:12:56;;;;;;;4.00;1.70;;;;;;;15.77;47.70;101428.13;107019;1269;23658;-70
2023/10/16 10:15:26;;;;;;;3.30;1.90;;;;;;;15.84;46.75;101427.20;106921;1269;24229;-72
2023/10/16 10:17:55;;;;;;;4.90;2.10;;;;;;;15.89;46.44;101427.00;107034;1254;22578;-71
2023/10/16 10:20:24;;;;;;;4.90;1.80;;;;;;;16.00;45.66;101430.14;106992;1269;25529;-72
2023/10/16 10:23:04;;;;;;;3.60;1.80;;;;;;;16.21;45.36;101424.88;107001;1270;24351;-71
2023/10/16 10:25:37;;;;;;;5.70;1.80;;;;;;;16.27;44.91;101432.89;106956;1257;25347;-70
2023/10/16 10:28:11;;;;;;;3.30;1.50;;;;;;;16.10;44.43;101433.11;107074;1266;22527;-73
2023/10/16 10:30:49;;;;;;;4.90;1.90;;;;;;;16.07;43.62;101436.55;107223;1269;25430;-71
2023/10/16 10:33:38;;;;;;;2.30;1.30;;;;;;;16.08;44.00;101435.96;107229;1269;25338;-69
2023/10/16 10:36:30;;;;;;;5.70;1.70;;;;;;;16.10;44.26;101439.42;107200;1266;25352;-70
2023/10/16 10:42:03;;;;;;;3.00;1.50;;;;;;;16.11;43.52;101443.06;107286;1270;25420;-70
2023/10/16 10:44:41;;;;;;;7.70;1.60;;;;;;;16.12;44.21;101446.36;106968;1272;25496;-70
2023/10/16 10:47:20;;;;;;;5.30;1.70;;;;;;;16.16;43.72;101446.06;107209;1253;25421;-70
2023/10/16 10:49:49;;;;;;;2.90;1.30;;;;;;;16.16;42.22;101446.91;107090;1267;22601;-71
2023/10/16 10:52:18;;;;;;;3.10;1.20;;;;;;;16.27;42.08;101450.76;106949;1267;22998;-70
2023/10/16 10:54:49;;;;;;;3.40;1.40;;;;;;;16.33;42.55;101453.91;107038;1254;25516;-70
2023/10/16 10:57:17;;;;;;;3.40;1.40;;;;;;;16.35;43.09;101458.88;106970;1270;25287;-70
2023/10/16 11:00:22;;;;;;;3.40;1.40;;;;;;;16.33;42.02;101462.64;107124;1254;22860;-70
2023/10/16 11:02:52;;;;;;;4.50;1.60;;;;;;;16.14;41.95;101469.20;107167;1257;25337;-69
2023/10/16 11:05:23;;;;;;;3.60;1.70;;;;;;;16.08;41.90;101467.67;107214;1257;25337;-71
2023/10/16 11:10:42;;;;;;;3.00;1.20;;;;;;;16.22;40.84;101468.42;107203;1260;25338;-69
2023/10/16 11:13:10;;;;;;;2.70;1.40;;;;;;;16.26;40.78;101471.97;106892;1267;25359;-70
2023/10/16 11:15:45;;;;;;;3.40;1.10;;;;;;;16.33;41.13;101471.23;107244;1267;25335;-69
2023/10/16 11:18:13;;;;;;;2.00;1.20;;;;;;;16.42;40.81;101470.90;107138;1273;22527;-72
2023/10/16 11:20:45;;;;;;;2.30;1.10;;;;;;;16.48;40.87;101470.52;107171;1273;24268;-68
2023/10/16 11:23:13;;;;;;;3.30;1.60;;;;;;;16.52;40.92;101471.10;107106;1267;25335;-69
2023/10/16 11:25:51;;;;;;;3.50;1.20;;;;;;;16.56;41.03;101477.98;107206;1251;22530;-69
2023/10/16 11:28:22;;;;;;;1.80;1.00;;;;;;;16.56;41.04;101482.17;107080;1270;22523;-70
2023/10/16 11:30:53;;;;;;;2.90;1.70;;;;;;;16.51;40.78;101482.00;107264;1266;25373;-70
2023/10/16 11:34:00;;;;;;;4.00;1.60;;;;;;;16.55;41.44;101488.19;107165;1266;25242;-68
2023/10/16 11:36:28;;;;;;;2.90;1.30;;;;;;;16.61;41.34;101492.16;107114;1257;25337;-68
2023/10/16 11:39:06;;;;;;;1.40;1.30;;;;;;;16.65;40.39;101490.96;107092;1251;25353;-69
2023/10/16 11:41:36;;;;;;;1.50;1.00;;;;;;;16.70;39.98;101491.51;107266;1253;25472;-68
2023/10/16 11:44:14;;;;;;;4.20;1.50;;;;;;;16.72;40.48;101501.73;107159;1267;25402;-69
2023/10/16 11:46:55;;;;;;;5.60;1.80;;;;;;;16.74;40.71;101506.05;106853;1267;22748;-69
2023/10/16 11:49:23;;;;;;;2.20;1.30;;;;;;;16.78;39.53;101505.91;106877;1273;25497;-70
2023/10/16 11:52:19;;;;;;;4.90;1.40;;;;;;;16.83;38.73;101501.34;107215;1254;25366;-69
2023/10/16 11:54:46;;;;;;;4.20;1.40;;;;;;;16.88;37.98;101498.21;106824;1267;25424;-70
2023/10/16 11:57:13;;;;;;;4.50;1.90;;;;;;;16.90;38.90;101505.30;106995;1254;25382;-71
2023/10/16 11:59:41;;;;;;;3.50;1.50;;;;;;;16.94;39.79;101506.93;107190;1260;22867;-69
2023/10/16 12:02:12;;;;;;;3.40;1.30;;;;;;;16.98;38.44;101512.05;107141;1273;25372;-69
2023/10/16 12:04:40;;;;;;;2.40;1.10;;;;;;;16.99;37.63;101510.94;107005;1267;25327;-69
2023/10/16 12:07:09;;;;;;;3.00;1.20;;;;;;;16.99;36.95;101517.44;107162;1261;24200;-69
2023/10/16 12:09:42;;;;;;;2.90;1.20;;;;;;;16.98;36.76;101518.18;107174;1261;22530;-70
2023/10/16 12:12:19;;;;;;;4.10;1.50;;;;;;;16.99;37.38;101525.67;106740;1273;25417;-70
2023/10/16 12:14:50;;;;;;;3.90;1.40;;;;;;;16.99;37.36;101524.61;107131;1267;25387;-69
2023/10/16 12:17:21;;;;;;;4.90;1.40;;;;;;;17.00;37.52;101526.84;107160;1267;25494;-72
2023/10/16 12:19:51;;;;;;;5.20;1.50;;;;;;;17.01;37.39;101538.92;107127;1267;22585;-70
2023/10/16 12:22:21;;;;;;;2.90;1.50;;;;;;;17.00;38.34;101537.04;107144;1266;25334;-70
2023/10/16 12:24:49;;;;;;;2.70;1.40;;;;;;;16.99;38.35;101536.53;107109;1251;25353;-69
2023/10/16 12:27:17;;;;;;;5.00;2.00;;;;;;;16.99;37.80;101535.83;106912;1267;266107;-70
2023/10/16 12:29:44;;;;;;;2.80;1.50;;;;;;;16.95;37.83;101543.50;107203;1267;22624;-69
2023/10/16 12:32:12;;;;;;;2.30;1.40;;;;;;;16.94;37.80;101540.40;107191;1266;25387;-69
2023/10/16 12:34:41;;;;;;;3.80;1.70;;;;;;;16.94;38.14;101548.64;107083;1270;22602;-70
2023/10/16 12:37:08;;;;;;;4.60;2.00;;;;;;;16.93;38.53;101548.84;107025;1267;25869;-71
2023/10/16 12:39:52;;;;;;;2.70;1.40;;;;;;;16.91;38.69;101558.91;107159;1267;25421;-69
2023/10/16 12:42:19;;;;;;;3.60;1.50;;;;;;;16.90;39.13;101564.52;107173;1267;24243;-69
2023/10/16 12:44:47;;;;;;;4.10;1.70;;;;;;;16.86;39.35;101572.39;107248;1267;25401;-71
2023/10/16 12:47:14;;;;;;;6.30;1.60;;;;;;;16.80;40.02;101581.19;107118;1267;25335;-71
2023/10/16 12:49:44;;;;;;;5.30;2.00;;;;;;;16.76;40.09;101579.41;107087;1270;25340;-71
2023/10/16 12:52:10;;;;;;;2.50;1.30;;;;;;;16.74;40.03;101587.70;107052;1270;22535;-70
2023/10/16 12:54:43;;;;;;;2.60;1.40;;;;;;;16.72;40.29;101585.84;107033;1272;25344;-69
2023/10/16 12:57:10;;;;;;;2.80;1.70;;;;;;;16.73;40.10;101588.28;107048;1266;25418;-69
2023/10/16 12:59:37;;;;;;;3.00;1.80;;;;;;;16.75;39.07;101593.30;106781;1273;25392;-70
2023/10/16 13:02:09;;;;;;;3.30;1.70;;;;;;;16.78;38.25;101595.27;106973;1270;25369;-69
2023/10/16 13:04:37;;;;;;;2.40;1.20;;;;;;;16.80;37.59;101605.35;106886;1273;22536;-68
2023/10/16 13:07:05;;;;;;;2.60;1.20;;;;;;;16.80;37.48;101608.36;106882;1267;25485;-69
2023/10/16 13:09:33;;;;;;;3.40;1.60;;;;;;;16.78;38.00;101612.30;107152;1266;25361;-70
2023/10/16 13:12:00;;;;;;;2.40;1.70;;;;;;;16.76;37.94;101610.60;106463;1267;1002992;-70
2023/10/16 13:14:27;;;;;;;4.30;1.70;;;;;;;16.74;37.99;101612.40;107105;1267;25360;-71
2023/10/16 13:16:55;;;;;;;4.50;1.60;;;;;;;16.71;38.47;101615.33;107071;1270;25364;-70
2023/10/16 13:19:22;;;;;;;4.20;1.60;;;;;;;16.68;38.80;101615.79;107014;1269;25405;-69
2023/10/16 13:21:52;;;;;;;3.70;1.60;;;;;;;16.68;39.49;101627.16;107166;1266;25331;-68
2023/10/16 13:24:23;;;;;;;3.80;1.90;;;;;;;16.69;39.63;101630.43;107041;1267;25499;-69
2023/10/16 13:26:52;;;;;;;3.20;1.90;;;;;;;16.68;38.73;101630.84;107259;1267;25442;-69